Meteo Giornale » Osservazioni meteo Italia » Treviso-Istrana

ore: 07:55 - Osservazioni Meteo Treviso-Istrana
Lat. 45° 41' N Lon. 12° 6' E Alt. 45 metri s.l.m.

nuvoloso Europe/Rome

13 °C

Nuvoloso

Temp. 24 Ore

9 °C

21 °C

Sud-Ovest

9.3 Km/h

Dew point 11 °C

Umidità 87 %

Visibilità  6 Km

Il sole sorge alle ore 06:00

Il sole tramonta alle ore 18:33

Data e Ora Cielo e Fenomeni T °C DP °C Um. % Pres. hPa Vis. km Vento km/h
Oggi h: 07:55 nuvoloso Nuvoloso 13 11 87 1016 6 SO 9.3
Oggi h: 06:55 molto_nuvoloso Molto Nuvoloso 10 8 87 1016 8 S/SO 13
Oggi h: 05:55 molto_nuvoloso Molto Nuvoloso 9 7 87 1015 9 N/NO 7.4
Oggi h: 04:55 sereno Sereno 9 7 87 1016 10 N 9.3
Oggi h: 03:55 sereno Sereno 10 8 87 1017 10 S/SO 11.1
Oggi h: 03:55 sereno Sereno 10 8 87 1017 10 S/SO 9.3
Oggi h: 01:55 sereno Sereno 9 8 93 1017 10 N 0
Oggi h: 00:55 sereno Sereno 9 8 93 1017 10 N 5.5
Ieri h: 23:55 sereno Sereno 9 8 93 1017 10 N 7.4
Ieri h: 22:55 sereno Sereno 10 9 93 1017 10 N 3.7
Ieri h: 21:55 sereno Sereno 11 10 93 1017 10 N 3.7
Ieri h: 20:55 sereno Sereno 13 11 87 1017 10 E/NE 7.4
Ieri h: 19:55 sereno Sereno 15 11 76 1017 10 S/SE 7.4
Ieri h: 18:55 sereno Sereno 16 8 58 1017 10 SE 7.4
Ieri h: 17:55 sereno Sereno 20 9 49 1017 10 E/SE 9.3
Ieri h: 16:55 sereno Sereno 20 8 45 1017 10 E 13
Ieri h: 15:55 sereno Sereno 21 8 43 1018 10 E/SE 11.1
Ieri h: 14:55 sereno Sereno 21 7 40 1019 10 E 7.4
Ieri h: 13:55 sereno Sereno 21 10 49 1020 10 SE 7.4
Ieri h: 12:55 sereno Sereno 20 9 49 1021 10 S/SE 9.3
Ieri h: 11:55 sereno Sereno 19 9 52 1022 10 E/NE 9.3
Ieri h: 10:55 sereno Sereno 18 9 55 1022 10 E 9.3
Ieri h: 09:55 sereno Sereno 17 9 59 1022 10 E 14.8
Ieri h: 08:55 sereno Sereno 13 11 87 1022 10 E 16.7